createdAt,value
2017-07-04T00:00:10.677Z,78.55
2017-07-04T00:01:26.391Z,78.52
2017-07-04T00:02:41.784Z,78.61
2017-07-04T00:03:55.949Z,78.42
2017-07-04T00:05:10.138Z,78.42
2017-07-04T00:06:25.803Z,78.61
2017-07-04T00:07:41.234Z,78.8
2017-07-04T00:08:56.306Z,78.99
2017-07-04T00:10:25.527Z,78.7
2017-07-04T00:11:40.931Z,79.09
2017-07-04T00:12:56.539Z,78.99
2017-07-04T00:14:12.269Z,78.99
2017-07-04T00:15:28.022Z,78.52
2017-07-04T00:16:43.480Z,79.09
2017-07-04T00:17:58.932Z,79.09
2017-07-04T00:19:14.633Z,79.09
2017-07-04T00:20:30.342Z,78.8
2017-07-04T00:21:45.904Z,78.7
2017-07-04T00:23:01.344Z,78.9
2017-07-04T00:24:16.765Z,79.09
2017-07-04T00:25:31.286Z,78.99
2017-07-04T00:26:45.432Z,78.8
2017-07-04T00:28:00.875Z,78.7
2017-07-04T00:29:16.334Z,78.7
2017-07-04T00:30:32.041Z,79.28
2017-07-04T00:31:47.453Z,79.19
2017-07-04T00:33:02.885Z,79.38
2017-07-04T00:34:17.066Z,79.28
2017-07-04T00:35:31.463Z,79.28
2017-07-04T00:36:46.862Z,79.86
2017-07-04T00:38:02.097Z,79.57
2017-07-04T00:39:15.857Z,79.47
2017-07-04T00:40:31.511Z,79.47
2017-07-04T00:41:46.951Z,79.86
2017-07-04T00:43:01.008Z,79.67
2017-07-04T00:44:16.098Z,79.67
2017-07-04T00:45:31.754Z,79.67
2017-07-04T00:46:45.886Z,79.86
2017-07-04T00:48:01.303Z,79.57
2017-07-04T00:49:15.435Z,79.86
2017-07-04T00:50:30.867Z,79.96
2017-07-04T00:53:15.596Z,80.01
2017-07-04T00:54:31.006Z,80.01
2017-07-04T00:55:46.726Z,80.11
2017-07-04T00:57:02.195Z,80.01
2017-07-04T00:58:17.288Z,79.72
2017-07-04T00:59:32.818Z,80.2
2017-07-04T01:00:48.944Z,80.11
2017-07-04T01:02:04.414Z,80.11
2017-07-04T01:03:19.875Z,80.11
2017-07-04T01:04:35.394Z,80.4
2017-07-04T01:05:51.113Z,80.68
2017-07-04T01:07:06.547Z,80.78
2017-07-04T01:08:21.970Z,80.68
2017-07-04T01:09:37.349Z,80.58
2017-07-04T01:10:51.751Z,81.07
2017-07-04T01:12:07.169Z,80.68
2017-07-04T01:13:22.710Z,80.58
2017-07-04T01:14:38.211Z,80.68
2017-07-04T01:15:53.517Z,81.07
2017-07-04T01:17:07.732Z,81.64
2017-07-04T01:18:23.146Z,81.07
2017-07-04T01:21:08.052Z,81.45
2017-07-04T01:22:22.183Z,81.64
2017-07-04T01:23:37.650Z,81.45
2017-07-04T01:24:53.262Z,81.41
2017-07-04T01:26:07.488Z,81.45
2017-07-04T01:27:22.873Z,81.41
2017-07-04T01:28:38.317Z,81.41
2017-07-04T01:29:53.753Z,81.45
2017-07-04T01:31:09.473Z,81.41
2017-07-04T01:32:24.906Z,81.31
2017-07-04T01:33:39.005Z,81.89
2017-07-04T01:34:54.394Z,81.79
2017-07-04T01:36:08.637Z,81.89
2017-07-04T01:37:24.103Z,81.79
2017-07-04T01:38:39.529Z,81.51
2017-07-04T01:39:53.670Z,81.31
2017-07-04T01:41:09.354Z,81.89
2017-07-04T01:42:24.554Z,81.79
2017-07-04T01:43:39.611Z,81.31
2017-07-04T01:45:56.709Z,81.79
2017-07-04T01:47:12.331Z,81.6
2017-07-04T01:48:27.980Z,81.79
2017-07-04T01:49:43.343Z,82.08
2017-07-04T01:50:58.981Z,81.79
2017-07-04T01:52:14.686Z,81.7
2017-07-04T01:53:30.131Z,81.89
2017-07-04T01:54:45.575Z,81.98
2017-07-04T01:56:01.030Z,81.89
2017-07-04T01:57:16.818Z,81.7
2017-07-04T01:58:32.286Z,82.18
2017-07-04T02:00:01.283Z,81.98
2017-07-04T02:01:16.734Z,82.27
2017-07-04T02:02:32.441Z,81.98
2017-07-04T02:03:47.843Z,81.98
2017-07-04T02:05:01.946Z,82.08
2017-07-04T02:06:16.101Z,82.37
2017-07-04T02:07:45.371Z,82.18
2017-07-04T02:09:00.811Z,82.27
2017-07-04T02:10:16.172Z,82.08
2017-07-04T02:11:31.733Z,82.04
2017-07-04T02:12:46.290Z,82.14
2017-07-04T02:14:01.711Z,82.23
2017-07-04T02:15:46.669Z,82.04
2017-07-04T02:17:02.105Z,81.95
2017-07-04T02:18:16.339Z,81.85
2017-07-04T02:19:31.747Z,82.23
2017-07-04T02:20:47.234Z,82.32
2017-07-04T02:22:02.660Z,82.23
2017-07-04T02:23:18.361Z,82.32
2017-07-04T02:24:33.808Z,82.32
2017-07-04T02:25:49.236Z,82.42
2017-07-04T02:27:04.762Z,82.14
2017-07-04T02:28:20.515Z,82.23
2017-07-04T02:29:35.923Z,82.23
2017-07-04T02:30:51.572Z,82.52
2017-07-04T02:32:07.044Z,81.85
2017-07-04T02:33:22.882Z,82.14
2017-07-04T02:34:37.022Z,82.52
2017-07-04T02:35:52.441Z,82.23
2017-07-04T02:37:07.945Z,82.23
2017-07-04T02:38:23.606Z,82.52
2017-07-04T02:39:39.035Z,82.14
2017-07-04T02:40:54.519Z,82.32
2017-07-04T02:42:23.514Z,82.32
2017-07-04T02:43:39.397Z,82.71
2017-07-04T02:44:54.842Z,82.42
2017-07-04T02:46:10.230Z,82.23
2017-07-04T02:47:24.026Z,82.32
2017-07-04T02:48:39.866Z,82.52
2017-07-04T02:49:55.340Z,82.42
2017-07-04T02:51:10.781Z,82.23
2017-07-04T02:52:26.162Z,82.04
2017-07-04T02:53:40.524Z,82.14
2017-07-04T02:54:54.626Z,82.42
2017-07-04T02:56:10.235Z,82.04
2017-07-04T02:57:24.190Z,82.42
2017-07-04T02:58:39.876Z,82.62
2017-07-04T02:59:53.983Z,82.52
2017-07-04T03:01:09.411Z,82.86
2017-07-04T03:02:25.009Z,83.19
2017-07-04T03:03:40.919Z,82.9
2017-07-04T03:04:56.365Z,83
2017-07-04T03:06:11.822Z,83
2017-07-04T03:07:25.966Z,82.9
2017-07-04T03:08:41.926Z,82.71
2017-07-04T03:09:57.379Z,83.09
2017-07-04T03:11:12.824Z,82.9
2017-07-04T03:12:27.007Z,82.9
2017-07-04T03:13:42.811Z,83.09
2017-07-04T03:14:56.927Z,82.86
2017-07-04T03:16:12.591Z,83.05
2017-07-04T03:17:28.027Z,83.09
2017-07-04T03:20:11.322Z,82.96
2017-07-04T03:21:26.978Z,82.81
2017-07-04T03:22:42.429Z,82.86
2017-07-04T03:23:57.855Z,82.81
2017-07-04T03:25:13.516Z,83.09
2017-07-04T03:26:28.989Z,82.81
2017-07-04T03:27:44.583Z,82.9
2017-07-04T03:29:00.074Z,83
2017-07-04T03:30:15.743Z,82.96
2017-07-04T03:31:29.881Z,82.96
2017-07-04T03:33:16.879Z,82.81
2017-07-04T03:34:32.692Z,82.9
2017-07-04T03:35:48.107Z,83.09
2017-07-04T03:37:03.565Z,82.9
2017-07-04T03:38:18.992Z,83
2017-07-04T03:39:34.677Z,83
2017-07-04T03:40:50.257Z,82.86
2017-07-04T03:42:05.694Z,83
2017-07-04T03:43:21.137Z,83.05
2017-07-04T03:44:36.807Z,82.19
2017-07-04T03:45:51.888Z,82.52
2017-07-04T03:47:07.297Z,82.32
2017-07-04T03:48:22.747Z,82.42
2017-07-04T03:49:38.411Z,82.62
2017-07-04T03:50:53.895Z,82.62
2017-07-04T03:52:09.429Z,82.32
2017-07-04T03:53:24.866Z,82.32
2017-07-04T03:54:40.534Z,82.23
2017-07-04T03:55:55.960Z,82.23
2017-07-04T03:57:11.384Z,82.42
2017-07-04T03:58:26.843Z,82.19
2017-07-04T03:59:42.534Z,82.14
2017-07-04T04:00:57.979Z,82.52
2017-07-04T04:02:13.425Z,82.23
2017-07-04T04:03:28.886Z,82.52
2017-07-04T04:04:44.527Z,82.23
2017-07-04T04:05:58.598Z,82.32
2017-07-04T04:07:14.089Z,82.04
2017-07-04T04:08:29.573Z,81.95
2017-07-04T04:09:45.198Z,82.42
2017-07-04T04:11:00.640Z,81.85
2017-07-04T04:12:16.016Z,82.04
2017-07-04T04:13:30.182Z,82.23
2017-07-04T04:14:45.892Z,82.14
2017-07-04T04:16:01.356Z,82.23
2017-07-04T04:17:17.069Z,82.23
2017-07-04T04:18:32.512Z,82.14
2017-07-04T04:19:48.266Z,82.14
2017-07-04T04:21:02.389Z,82.23
2017-07-04T04:22:17.835Z,81.95
2017-07-04T04:23:33.294Z,82.04
2017-07-04T04:24:48.968Z,82.71
2017-07-04T04:26:04.450Z,82.52
2017-07-04T04:27:18.573Z,82.14
2017-07-04T04:28:34.045Z,82
2017-07-04T04:29:49.762Z,82.52
2017-07-04T04:31:03.887Z,83
2017-07-04T04:32:18.978Z,82.86
2017-07-04T04:33:34.399Z,82.71
2017-07-04T04:34:50.124Z,82.81
2017-07-04T04:36:04.166Z,83.44
2017-07-04T04:37:19.643Z,83.38
2017-07-04T04:38:34.722Z,83.38
2017-07-04T04:39:50.472Z,83
2017-07-04T04:41:05.538Z,83.05
2017-07-04T04:42:21.002Z,83.86
2017-07-04T04:43:36.401Z,83.09
2017-07-04T04:44:52.139Z,83.19
2017-07-04T04:46:07.254Z,83.38
2017-07-04T04:47:22.694Z,83.86
2017-07-04T04:48:38.203Z,83.48
2017-07-04T04:49:53.909Z,83.95
2017-07-04T04:51:09.369Z,83.95
2017-07-04T04:52:24.813Z,83.29
2017-07-04T04:53:40.263Z,83.29
2017-07-04T04:54:55.971Z,83.95
2017-07-04T04:56:11.344Z,83.76
2017-07-04T04:57:26.821Z,83.19
2017-07-04T04:58:42.229Z,83.29
2017-07-04T04:59:56.597Z,83.58
2017-07-04T05:01:12.093Z,83.09
2017-07-04T05:02:27.517Z,83.67
2017-07-04T05:03:42.907Z,83
2017-07-04T05:04:58.713Z,83.09
2017-07-04T05:06:14.126Z,82.18
2017-07-04T05:07:29.555Z,82.46
2017-07-04T05:08:45.172Z,82.65
2017-07-04T05:09:59.575Z,82.56
2017-07-04T05:11:15.100Z,82.46
2017-07-04T05:12:30.549Z,82.27
2017-07-04T05:13:46.013Z,82.08
2017-07-04T05:15:02.034Z,82.08
2017-07-04T05:16:17.478Z,82.08
2017-07-04T05:17:33.002Z,81.79
2017-07-04T05:18:48.102Z,81.41
2017-07-04T05:20:03.793Z,80.87
2017-07-04T05:21:19.226Z,80.64
2017-07-04T05:22:34.664Z,80.55
2017-07-04T05:23:50.079Z,80.68
2017-07-04T05:25:04.427Z,80.64
2017-07-04T05:26:20.019Z,80.26
2017-07-04T05:27:35.440Z,80.16
2017-07-04T05:28:50.532Z,80.07
2017-07-04T05:30:06.240Z,79.44
2017-07-04T05:31:21.745Z,79.63
2017-07-04T05:32:37.151Z,78.86
2017-07-04T05:33:52.678Z,79.72
2017-07-04T05:35:08.357Z,79.63
2017-07-04T05:36:23.778Z,79.72
2017-07-04T05:37:39.242Z,79.44
2017-07-04T05:38:53.413Z,79.14
2017-07-04T05:40:09.394Z,78.77
2017-07-04T05:41:24.833Z,79.53
2017-07-04T05:42:40.279Z,79.24
2017-07-04T05:43:55.650Z,78.77
2017-07-04T05:45:24.913Z,78.57
2017-07-04T05:46:40.360Z,79.53
2017-07-04T05:47:55.767Z,79.14
2017-07-04T05:49:10.856Z,79.34
2017-07-04T05:50:26.589Z,79.34
2017-07-04T05:51:42.005Z,79.34
2017-07-04T05:52:57.456Z,78.77
2017-07-04T05:54:12.882Z,78.47
2017-07-04T05:55:27.168Z,78.28
2017-07-04T05:56:42.630Z,78.77
2017-07-04T05:57:58.059Z,77.71
2017-07-04T05:59:13.695Z,77.8
2017-07-04T06:00:29.387Z,77.8
2017-07-04T06:01:44.823Z,77.8
2017-07-04T06:03:00.441Z,77.46
2017-07-04T06:04:15.835Z,76.98
2017-07-04T06:05:31.513Z,77.33
2017-07-04T06:06:47.000Z,77.61
2017-07-04T06:08:02.613Z,76.75
2017-07-04T06:09:18.003Z,77.04
2017-07-04T06:10:33.664Z,76.94
2017-07-04T06:11:49.295Z,77.13
2017-07-04T06:13:04.729Z,76.65
2017-07-04T06:14:20.179Z,76.65
2017-07-04T06:15:35.963Z,76.46
2017-07-04T06:16:51.353Z,76.75
2017-07-04T06:18:06.751Z,76.65
2017-07-04T06:19:22.436Z,76.37
2017-07-04T06:20:38.177Z,75.98
2017-07-04T06:21:53.566Z,75.5
2017-07-04T06:23:09.166Z,74.96
2017-07-04T06:24:24.800Z,75.25
2017-07-04T06:25:40.498Z,74.77
2017-07-04T06:26:55.916Z,74.29
2017-07-04T06:28:11.586Z,73.43
2017-07-04T06:29:25.624Z,73.24
2017-07-04T06:30:41.324Z,72.89
2017-07-04T06:31:56.776Z,72.69
2017-07-04T06:33:12.334Z,72.31
2017-07-04T06:34:26.492Z,71.83
2017-07-04T06:35:42.226Z,71.35
2017-07-04T06:36:57.875Z,71.35
2017-07-04T06:38:13.329Z,71.35
2017-07-04T06:39:28.768Z,69.53
2017-07-04T06:40:58.033Z,69.91
2017-07-04T06:42:12.165Z,70.78
2017-07-04T06:43:27.577Z,70.49
2017-07-04T06:44:43.012Z,68.85
2017-07-04T06:45:58.824Z,68.28
2017-07-04T06:47:14.251Z,69.14
2017-07-04T06:48:29.664Z,68.76
2017-07-04T06:49:43.664Z,69.72
2017-07-04T06:50:59.334Z,70.1
2017-07-04T06:52:11.976Z,70.1
2017-07-04T06:53:27.569Z,69.91
2017-07-04T06:54:41.750Z,69.72
2017-07-04T06:55:56.045Z,69.85
2017-07-04T06:57:08.931Z,68.79
2017-07-04T06:58:24.340Z,69.18
2017-07-04T06:59:38.301Z,68.98
2017-07-04T07:00:53.795Z,68.89
2017-07-04T07:02:09.488Z,68.7
2017-07-04T07:03:24.925Z,67.93
2017-07-04T07:04:40.612Z,67.58
2017-07-04T07:05:55.999Z,67.1
2017-07-04T07:07:11.721Z,66.71
2017-07-04T07:08:27.158Z,66.04
2017-07-04T07:09:42.232Z,65.84
2017-07-04T07:10:57.683Z,65.56
2017-07-04T07:12:13.676Z,66.33
2017-07-04T07:13:29.366Z,66.33
2017-07-04T07:14:44.826Z,66.71
2017-07-04T07:16:00.343Z,66.04
2017-07-04T07:17:16.053Z,66.3
2017-07-04T07:18:30.207Z,65.91
2017-07-04T07:19:45.639Z,65.81
2017-07-04T07:21:01.252Z,66.2
2017-07-04T07:22:15.512Z,66.58
2017-07-04T07:23:31.130Z,64.95
2017-07-04T07:24:46.536Z,65.91
2017-07-04T07:26:02.012Z,65.66
2017-07-04T07:27:17.735Z,64.47
2017-07-04T07:28:31.907Z,65.33
2017-07-04T07:29:46.047Z,64.47
2017-07-04T07:31:01.489Z,64.56
2017-07-04T07:32:17.202Z,64.47
2017-07-04T07:33:32.619Z,64.76
2017-07-04T07:34:48.106Z,65.53
2017-07-04T07:36:03.531Z,64.89
2017-07-04T07:37:19.261Z,63.64
2017-07-04T07:38:34.685Z,63.45
2017-07-04T07:39:50.231Z,63.92
2017-07-04T07:41:05.709Z,63.54
2017-07-04T07:42:18.909Z,63.25
2017-07-04T07:43:34.717Z,62.38
2017-07-04T07:44:48.830Z,62.38
2017-07-04T07:46:04.260Z,62.77
2017-07-04T07:47:20.011Z,62.38
2017-07-04T07:48:35.440Z,61.14
2017-07-04T07:49:50.938Z,61.04
2017-07-04T07:51:20.056Z,62
2017-07-04T07:52:35.722Z,60.27
2017-07-04T07:53:51.198Z,60.94
2017-07-04T07:55:06.634Z,61.14
2017-07-04T07:56:22.288Z,61.04
2017-07-04T07:57:37.718Z,60.46
2017-07-04T07:58:53.199Z,59.5
2017-07-04T08:00:07.307Z,59.69
2017-07-04T08:01:21.422Z,59.99
2017-07-04T08:02:35.811Z,60.66
2017-07-04T08:03:51.024Z,60.56
2017-07-04T08:05:06.484Z,60.88
2017-07-04T08:06:21.913Z,60.3
2017-07-04T08:07:37.575Z,59.63
2017-07-04T08:08:53.284Z,59.15
2017-07-04T08:10:08.774Z,58.86
2017-07-04T08:11:24.225Z,57.7
2017-07-04T08:12:39.929Z,58.18
2017-07-04T08:13:55.607Z,57.73
2017-07-04T08:15:11.055Z,57.92
2017-07-04T08:16:26.514Z,58.89
2017-07-04T08:17:55.623Z,58.4
2017-07-04T08:19:09.593Z,58.31
2017-07-04T08:20:25.008Z,58.02
2017-07-04T08:21:40.826Z,58.31
2017-07-04T08:23:09.730Z,58.12
2017-07-04T08:24:25.145Z,57.92
2017-07-04T08:25:40.748Z,58.5
2017-07-04T08:26:56.547Z,58.02
2017-07-04T08:28:12.046Z,57.45
2017-07-04T08:29:27.492Z,57.45
2017-07-04T08:30:43.037Z,57.67
2017-07-04T08:31:57.423Z,56.9
2017-07-04T08:33:13.067Z,56.41
2017-07-04T08:34:28.543Z,55.55
2017-07-04T08:35:43.989Z,55.26
2017-07-04T08:36:59.641Z,56.32
2017-07-04T08:38:15.108Z,56.8
2017-07-04T08:39:30.241Z,56.15
2017-07-04T08:40:45.707Z,56.35
2017-07-04T08:42:01.570Z,56.05
2017-07-04T08:43:16.999Z,56.05
2017-07-04T08:44:32.453Z,55.96
2017-07-04T08:45:47.907Z,56.15
2017-07-04T08:47:03.774Z,56.09
2017-07-04T08:48:19.291Z,55.89
2017-07-04T08:49:34.772Z,54.16
2017-07-04T08:50:50.290Z,54.16
2017-07-04T08:52:04.560Z,54.28
2017-07-04T08:53:19.697Z,54.38
2017-07-04T08:54:35.340Z,54.47
2017-07-04T08:55:50.809Z,55.15
2017-07-04T08:57:06.719Z,54.4
2017-07-04T08:58:22.125Z,54.33
2017-07-04T08:59:36.272Z,53.85
2017-07-04T09:00:50.372Z,53.75
2017-07-04T09:02:06.034Z,52.91
2017-07-04T09:03:21.464Z,51.37
2017-07-04T09:04:36.952Z,51.07
2017-07-04T09:05:52.640Z,51.2
2017-07-04T09:07:06.993Z,48.79
2017-07-04T09:08:22.479Z,46.39
2017-07-04T09:09:37.930Z,47.96
2017-07-04T09:10:53.368Z,44.38
2017-07-04T09:12:09.269Z,45.74
2017-07-04T09:13:23.362Z,46.15
2017-07-04T09:14:38.793Z,45.47
2017-07-04T09:15:52.905Z,42.59
2017-07-04T09:17:08.341Z,43.07
2017-07-04T09:18:24.030Z,42.49
2017-07-04T09:19:38.565Z,42
2017-07-04T09:20:52.867Z,42.28
2017-07-04T09:22:08.297Z,41.82
2017-07-04T09:23:23.985Z,41.52
2017-07-04T09:24:38.139Z,41.45
2017-07-04T09:25:53.639Z,42.54
2017-07-04T09:27:09.294Z,41.2
2017-07-04T09:28:25.047Z,39.67
2017-07-04T09:29:40.502Z,41.22
2017-07-04T09:30:54.652Z,39.37
2017-07-04T09:32:10.061Z,36.66
2017-07-04T09:33:25.767Z,36.08
2017-07-04T09:34:41.237Z,37.23
2017-07-04T09:35:56.793Z,38.17
2017-07-04T09:37:12.314Z,39.24
2017-07-04T09:38:26.890Z,38.56
2017-07-04T09:39:42.569Z,38.58
2017-07-04T09:40:57.794Z,36.44
2017-07-04T09:42:13.272Z,35.57
2017-07-04T09:43:28.934Z,35.67
2017-07-04T09:44:43.108Z,36.25
2017-07-04T09:45:57.268Z,36.74
2017-07-04T09:47:12.752Z,36.64
2017-07-04T09:48:28.755Z,36.16
2017-07-04T09:49:44.243Z,36.74
2017-07-04T09:50:59.701Z,36.27
2017-07-04T09:52:15.226Z,35.78
2017-07-04T09:53:30.942Z,35.21
2017-07-04T09:54:46.378Z,35.22
2017-07-04T09:56:02.040Z,35.43
2017-07-04T09:57:17.528Z,34.77
2017-07-04T09:58:32.895Z,33.9
2017-07-04T09:59:46.992Z,33.04
2017-07-04T10:01:02.655Z,32.82
2017-07-04T10:02:49.557Z,34.75
2017-07-04T10:04:05.016Z,34.25
2017-07-04T10:05:20.493Z,34.33
2017-07-04T10:06:35.616Z,35.4
2017-07-04T10:07:51.350Z,36.52
2017-07-04T10:09:06.775Z,37.59
2017-07-04T10:10:35.808Z,38.25
2017-07-04T10:11:51.251Z,38.93
2017-07-04T10:13:06.959Z,38.06
2017-07-04T10:14:21.000Z,37.67
2017-07-04T10:16:07.099Z,38.35
2017-07-04T10:17:22.773Z,38.53
2017-07-04T10:18:38.437Z,39.37
2017-07-04T10:19:54.071Z,40.61
2017-07-04T10:21:09.564Z,41.09
2017-07-04T10:22:25.072Z,42.33
2017-07-04T10:23:40.732Z,42.5
2017-07-04T10:24:56.380Z,42.5
2017-07-04T10:26:11.857Z,42.21
2017-07-04T10:27:27.283Z,42.41
2017-07-04T10:28:43.009Z,42.62
2017-07-04T10:29:58.903Z,41.66
2017-07-04T10:31:14.378Z,41.29
2017-07-04T10:32:29.842Z,41.19
2017-07-04T10:33:45.531Z,41.09
2017-07-04T10:35:00.992Z,40.23
2017-07-04T10:36:16.438Z,39.76
2017-07-04T10:37:31.918Z,40.17
2017-07-04T10:38:47.650Z,39.29
2017-07-04T10:40:03.087Z,37.36
2017-07-04T10:41:18.522Z,37.67
2017-07-04T10:42:34.129Z,38.04
2017-07-04T10:43:49.916Z,38.23
2017-07-04T10:45:05.393Z,37.94
2017-07-04T10:46:34.455Z,39.39
2017-07-04T10:47:49.921Z,39.67
2017-07-04T10:49:05.617Z,38.12
2017-07-04T10:50:21.078Z,37.63
2017-07-04T10:51:36.511Z,37.36
2017-07-04T10:52:51.983Z,37.07
2017-07-04T10:54:07.751Z,37.09
2017-07-04T10:55:23.428Z,37.48
2017-07-04T10:56:37.629Z,36.52
2017-07-04T10:57:53.153Z,36.82
2017-07-04T10:59:08.933Z,37.69
2017-07-04T11:00:24.430Z,38.25
2017-07-04T11:01:38.624Z,37.96
2017-07-04T11:02:54.240Z,37.67
2017-07-04T11:04:08.643Z,37.46
2017-07-04T11:05:24.116Z,36.68
2017-07-04T11:06:39.543Z,37.44
2017-07-04T11:07:55.051Z,36.38
2017-07-04T11:09:10.751Z,36.28
2017-07-04T11:10:26.272Z,36.1
2017-07-04T11:11:41.786Z,35.05
2017-07-04T11:12:57.205Z,35.05
2017-07-04T11:14:12.901Z,34.3
2017-07-04T11:15:28.360Z,34.31
2017-07-04T11:16:43.947Z,34.99
2017-07-04T11:17:59.067Z,35.46
2017-07-04T11:19:14.439Z,34.97
2017-07-04T11:20:29.908Z,34.77
2017-07-04T11:21:45.430Z,34.86
2017-07-04T11:23:01.073Z,35.25
2017-07-04T11:24:16.807Z,35.42
2017-07-04T11:25:32.261Z,35.04
2017-07-04T11:26:47.864Z,35.62
2017-07-04T11:28:03.404Z,36.4
2017-07-04T11:29:19.139Z,36.28
2017-07-04T11:30:34.784Z,36.38
2017-07-04T11:31:50.239Z,35.89
2017-07-04T11:33:05.805Z,35.21
2017-07-04T11:34:21.524Z,35.52
2017-07-04T11:35:37.037Z,36
2017-07-04T11:36:52.472Z,35.81
2017-07-04T11:38:07.957Z,35.15
2017-07-04T11:39:23.726Z,34.67
2017-07-04T11:40:39.227Z,34.59
2017-07-04T11:41:54.711Z,34.51
2017-07-04T11:43:10.147Z,33.73
2017-07-04T11:44:25.893Z,33.25
2017-07-04T11:45:41.375Z,33.73
2017-07-04T11:46:57.021Z,34.41
2017-07-04T11:48:12.470Z,34.49
2017-07-04T11:49:28.159Z,34.97
2017-07-04T11:50:43.636Z,34.97
2017-07-04T11:51:59.404Z,35.17
2017-07-04T11:53:14.467Z,34.59
2017-07-04T11:54:29.926Z,34.78
2017-07-04T11:55:45.676Z,34.38
2017-07-04T11:57:01.130Z,34.38
2017-07-04T11:58:16.589Z,35.44
2017-07-04T11:59:32.347Z,35.91
2017-07-04T12:00:47.812Z,36.3
2017-07-04T12:02:03.281Z,35.72
2017-07-04T12:03:18.835Z,35.35
2017-07-04T12:04:34.522Z,34.19
2017-07-04T12:05:48.549Z,33.8
2017-07-04T12:07:03.974Z,33.51
2017-07-04T12:08:19.472Z,33.23
2017-07-04T12:09:35.190Z,32.94
2017-07-04T12:10:50.660Z,32.84
2017-07-04T12:12:06.131Z,33.72
2017-07-04T12:13:21.771Z,32.84
2017-07-04T12:14:37.527Z,33.64
2017-07-04T12:15:53.004Z,33.54
2017-07-04T12:17:08.465Z,32.87
2017-07-04T12:18:22.632Z,31.71
2017-07-04T12:19:38.320Z,31.6
2017-07-04T12:20:53.765Z,31.7
2017-07-04T12:22:07.833Z,32.17
2017-07-04T12:23:22.089Z,32.65
2017-07-04T12:24:37.698Z,33.23
2017-07-04T12:25:53.609Z,32.34
2017-07-04T12:27:22.551Z,32.82
2017-07-04T12:28:37.943Z,33.31
2017-07-04T12:30:07.287Z,33.7
2017-07-04T12:31:22.791Z,33.31
2017-07-04T12:32:38.336Z,33.23
2017-07-04T12:33:53.842Z,33.14
2017-07-04T12:35:08.245Z,32.94
2017-07-04T12:36:23.714Z,33.42
2017-07-04T12:37:39.582Z,33.51
2017-07-04T12:38:55.088Z,33.89
2017-07-04T12:40:10.777Z,34.09
2017-07-04T12:41:26.166Z,34.27
2017-07-04T12:42:41.652Z,34.47
2017-07-04T12:43:57.198Z,34.47
2017-07-04T12:45:12.912Z,34.47
2017-07-04T12:46:28.350Z,34.47
2017-07-04T12:47:43.999Z,34.28
2017-07-04T12:48:59.501Z,34.38
2017-07-04T12:50:13.854Z,34.96
2017-07-04T12:51:29.297Z,34.57
2017-07-04T12:52:44.815Z,34.28
2017-07-04T12:54:00.390Z,34.38
2017-07-04T12:55:16.071Z,34.38
2017-07-04T12:56:30.244Z,34.28
2017-07-04T12:57:45.705Z,33.97
2017-07-04T12:59:00.846Z,34.45
2017-07-04T13:00:16.767Z,34.55
2017-07-04T13:01:32.254Z,35.13
2017-07-04T13:02:47.799Z,34.65
2017-07-04T13:04:02.922Z,35.13
2017-07-04T13:05:17.297Z,34.65
2017-07-04T13:06:32.873Z,34.92
2017-07-04T13:07:48.529Z,35.02
2017-07-04T13:09:04.034Z,34.63
2017-07-04T13:10:19.680Z,35.5
2017-07-04T13:11:35.187Z,34.91
2017-07-04T13:12:50.676Z,35.2
2017-07-04T13:14:06.126Z,35.99
2017-07-04T13:15:21.835Z,36.26
2017-07-04T13:16:35.940Z,35.78
2017-07-04T13:17:51.428Z,35.1
2017-07-04T13:19:06.916Z,35.5
2017-07-04T13:20:22.638Z,34.73
2017-07-04T13:21:38.124Z,34.83
2017-07-04T13:22:53.586Z,35.5
2017-07-04T13:24:07.711Z,35.5
2017-07-04T13:25:23.615Z,35.21
2017-07-04T13:26:52.540Z,35.21
2017-07-04T13:28:06.801Z,35.41
2017-07-04T13:29:22.237Z,35.12
2017-07-04T13:30:36.600Z,35.31
2017-07-04T13:31:52.085Z,34.73
2017-07-04T13:33:07.607Z,34.73
2017-07-04T13:34:22.747Z,34.63
2017-07-04T13:35:38.507Z,34.92
2017-07-04T13:36:54.043Z,35.31
2017-07-04T13:38:09.472Z,35.31
2017-07-04T13:39:24.976Z,35.12
2017-07-04T13:40:40.969Z,35.12
2017-07-04T13:41:56.444Z,35.31
2017-07-04T13:43:11.924Z,35.1
2017-07-04T13:44:27.622Z,35.78
2017-07-04T13:45:43.389Z,34.91
2017-07-04T13:46:58.835Z,35.29
2017-07-04T13:48:14.256Z,35
2017-07-04T13:49:29.773Z,35.29
2017-07-04T13:50:45.608Z,35.68
2017-07-04T13:51:59.765Z,35.2
2017-07-04T13:53:15.227Z,34.81
2017-07-04T13:54:29.439Z,35.29
2017-07-04T13:55:45.257Z,35.78
2017-07-04T13:57:00.722Z,35.49
2017-07-04T13:58:16.362Z,35.68
2017-07-04T13:59:31.846Z,35.76
2017-07-04T14:00:47.780Z,35.57
2017-07-04T14:02:03.225Z,35.94
2017-07-04T14:03:18.679Z,36.42
2017-07-04T14:04:34.349Z,36.52
2017-07-04T14:05:47.142Z,36.71
2017-07-04T14:07:03.003Z,36.71
2017-07-04T14:08:18.487Z,36.71
2017-07-04T14:09:33.928Z,37.48
2017-07-04T14:10:49.502Z,37.38
2017-07-04T14:12:05.289Z,37.7
2017-07-04T14:13:20.779Z,36.53
2017-07-04T14:14:36.266Z,35.57
2017-07-04T14:15:51.774Z,35.66
2017-07-04T14:17:07.553Z,35.76
2017-07-04T14:18:22.661Z,35.95
2017-07-04T14:19:38.108Z,35.66
2017-07-04T14:20:53.406Z,35.66
2017-07-04T14:22:09.146Z,34.89
2017-07-04T14:23:25.683Z,35.47
2017-07-04T14:24:42.188Z,35.66
2017-07-04T14:25:57.919Z,35.76
2017-07-04T14:27:13.464Z,35.18
2017-07-04T14:28:28.889Z,35.86
2017-07-04T14:29:44.360Z,35.95
2017-07-04T14:31:00.094Z,35.95
2017-07-04T14:32:15.678Z,35.08
2017-07-04T14:33:31.125Z,35.18
2017-07-04T14:34:46.654Z,34.89
2017-07-04T14:36:02.396Z,34.79
2017-07-04T14:37:17.991Z,34.6
2017-07-04T14:38:33.495Z,35.08
2017-07-04T14:39:49.083Z,35.18
2017-07-04T14:41:04.816Z,35.26
2017-07-04T14:42:20.334Z,35.08
2017-07-04T14:43:35.818Z,35.18
2017-07-04T14:44:51.386Z,34.79
2017-07-04T14:46:07.151Z,34.99
2017-07-04T14:47:22.674Z,35.08
2017-07-04T14:48:38.260Z,34.89
2017-07-04T14:49:53.840Z,34.89
2017-07-04T14:51:09.551Z,34.89
2017-07-04T14:52:25.059Z,35.55
2017-07-04T14:53:54.177Z,35.45
2017-07-04T14:55:06.954Z,35.64
2017-07-04T14:56:22.635Z,35.26
2017-07-04T14:57:36.863Z,35.55
2017-07-04T14:58:52.347Z,35.84
2017-07-04T15:00:07.884Z,36.03
2017-07-04T15:01:23.835Z,36.32
2017-07-04T15:02:37.987Z,36.42
2017-07-04T15:03:53.518Z,36.13
2017-07-04T15:05:07.649Z,35.94
2017-07-04T15:06:22.044Z,36.21
2017-07-04T15:07:37.529Z,35.64
2017-07-04T15:08:53.054Z,35.53
2017-07-04T15:10:08.593Z,35.82
2017-07-04T15:11:24.521Z,36.4
2017-07-04T15:12:39.652Z,36.59
2017-07-04T15:13:55.188Z,35.53
2017-07-04T15:15:10.612Z,35.36
2017-07-04T15:16:26.330Z,34.87
2017-07-04T15:17:41.868Z,35.44
2017-07-04T15:18:57.360Z,36.03
2017-07-04T15:20:12.843Z,35.64
2017-07-04T15:21:28.590Z,35.64
2017-07-04T15:22:44.119Z,36.22
2017-07-04T15:24:13.139Z,35.84
2017-07-04T15:25:27.322Z,36.13
2017-07-04T15:26:43.141Z,36.32
2017-07-04T15:27:58.571Z,35.84
2017-07-04T15:29:14.067Z,35.36
2017-07-04T15:30:29.519Z,35.45
2017-07-04T15:31:45.229Z,35.16
2017-07-04T15:32:59.427Z,35.55
2017-07-04T15:34:12.272Z,35.84
2017-07-04T15:35:27.839Z,35.45
2017-07-04T15:36:43.506Z,35.26
2017-07-04T15:37:58.983Z,34.87
2017-07-04T15:39:14.528Z,34.97
2017-07-04T15:40:29.729Z,35.06
2017-07-04T15:41:45.443Z,35.16
2017-07-04T15:43:00.974Z,34.97
2017-07-04T15:44:16.453Z,35.26
2017-07-04T15:45:31.960Z,35.55
2017-07-04T15:46:47.736Z,35.74
2017-07-04T15:48:03.362Z,35.16
2017-07-04T15:49:18.807Z,35.55
2017-07-04T15:50:34.264Z,34.97
2017-07-04T15:51:50.356Z,34.39
2017-07-04T15:53:05.853Z,33.91
2017-07-04T15:54:20.013Z,34.29
2017-07-04T15:55:35.447Z,34.48
2017-07-04T15:56:51.149Z,34.29
2017-07-04T15:58:06.678Z,34.58
2017-07-04T15:59:22.180Z,34.58
2017-07-04T16:00:37.689Z,35.06
2017-07-04T16:01:53.391Z,34.87
2017-07-04T16:03:08.839Z,34.2
2017-07-04T16:04:24.271Z,34.29
2017-07-04T16:05:39.968Z,34.29
2017-07-04T16:06:55.738Z,34.29
2017-07-04T16:08:11.175Z,34.48
2017-07-04T16:09:25.239Z,34.29
2017-07-04T16:10:40.666Z,34.2
2017-07-04T16:11:56.164Z,34.48
2017-07-04T16:13:42.301Z,35.16
2017-07-04T16:14:57.980Z,35.26
2017-07-04T16:16:13.603Z,35.55
2017-07-04T16:17:28.218Z,35.36
2017-07-04T16:18:43.906Z,35.06
2017-07-04T16:19:59.318Z,35.36
2017-07-04T16:21:14.782Z,34.97
2017-07-04T16:22:30.512Z,35.64
2017-07-04T16:23:45.963Z,36.03
2017-07-04T16:25:01.423Z,35.72
2017-07-04T16:26:17.049Z,35.05